createdAt,value
2022-12-18T00:01:22.809Z,-2.09
2022-12-18T00:03:55.940Z,-2.12
2022-12-18T00:06:30.485Z,-2.12
2022-12-18T00:09:04.034Z,-2.11
2022-12-18T00:11:35.672Z,-2.11
2022-12-18T00:14:07.725Z,-2.10
2022-12-18T00:16:39.751Z,-2.10
2022-12-18T00:19:13.418Z,-2.09
2022-12-18T00:21:45.966Z,-2.11
2022-12-18T00:24:17.568Z,-2.12
2022-12-18T00:26:49.389Z,-2.12
2022-12-18T00:29:20.992Z,-2.11
2022-12-18T00:31:52.841Z,-2.11
2022-12-18T00:34:24.794Z,-2.11
2022-12-18T00:36:56.523Z,-2.11
2022-12-18T00:39:28.249Z,-2.13
2022-12-18T00:42:32.431Z,-2.10
2022-12-18T00:45:10.652Z,-2.08
2022-12-18T00:47:44.708Z,-2.07
2022-12-18T00:50:16.376Z,-2.07
2022-12-18T00:52:48.233Z,-2.10
2022-12-18T00:55:20.453Z,-2.14
2022-12-18T00:57:55.144Z,-2.14
2022-12-18T01:00:27.160Z,-2.14
2022-12-18T01:02:58.981Z,-2.14
2022-12-18T01:05:32.062Z,-2.15
2022-12-18T01:08:04.032Z,-2.15
2022-12-18T01:10:35.735Z,-2.15
2022-12-18T01:13:07.558Z,-2.16
2022-12-18T01:15:39.279Z,-2.17
2022-12-18T01:18:11.103Z,-2.19
2022-12-18T01:20:42.961Z,-2.21
2022-12-18T01:23:14.638Z,-2.23
2022-12-18T01:25:46.222Z,-2.22
2022-12-18T01:28:17.876Z,-2.19
2022-12-18T01:30:49.583Z,-2.16
2022-12-18T01:33:21.419Z,-2.17
2022-12-18T01:35:53.046Z,-2.16
2022-12-18T01:38:24.723Z,-2.14
2022-12-18T01:41:02.212Z,-2.11
2022-12-18T01:43:50.356Z,-2.10
2022-12-18T01:46:24.328Z,-2.05
2022-12-18T01:49:00.179Z,-2.03
2022-12-18T01:51:34.332Z,-2.00
2022-12-18T01:54:06.109Z,-2.00
2022-12-18T01:56:39.673Z,-1.98
2022-12-18T01:59:15.200Z,-2.01
2022-12-18T02:01:48.331Z,-1.98
2022-12-18T02:04:26.925Z,-2.00
2022-12-18T02:07:12.013Z,-2.01
2022-12-18T02:09:51.413Z,-1.99
2022-12-18T02:12:25.946Z,-1.99
2022-12-18T02:15:10.777Z,-1.98
2022-12-18T02:17:49.190Z,-2.02
2022-12-18T02:20:26.845Z,-2.02
2022-12-18T02:23:14.468Z,-2.04
2022-12-18T02:26:22.113Z,-2.03
2022-12-18T02:28:59.308Z,-2.02
2022-12-18T02:31:52.073Z,-2.04
2022-12-18T02:34:36.772Z,-2.04
2022-12-18T02:37:12.741Z,-2.03
2022-12-18T02:39:47.818Z,-2.04
2022-12-18T02:42:22.828Z,-2.05
2022-12-18T02:45:15.379Z,-2.09
2022-12-18T02:48:17.086Z,-2.14
2022-12-18T02:50:59.043Z,-2.18
2022-12-18T02:53:41.823Z,-2.25
2022-12-18T02:56:20.846Z,-2.25
2022-12-18T02:59:51.678Z,-2.25
2022-12-18T03:02:27.515Z,-2.23
2022-12-18T03:05:14.962Z,-2.22
2022-12-18T03:07:54.172Z,-2.22
2022-12-18T03:10:44.690Z,-2.23
2022-12-18T03:13:22.425Z,-2.22
2022-12-18T03:16:03.277Z,-2.24
2022-12-18T03:19:00.151Z,-2.23
2022-12-18T03:21:53.462Z,-2.21
2022-12-18T03:24:34.277Z,-2.21
2022-12-18T03:27:36.252Z,-2.23
2022-12-18T03:30:11.225Z,-2.26
2022-12-18T03:32:49.139Z,-2.25
2022-12-18T03:35:27.253Z,-2.26
2022-12-18T03:38:01.662Z,-2.29
2022-12-18T03:40:59.149Z,-2.31
2022-12-18T03:43:57.586Z,-2.30
2022-12-18T03:46:42.504Z,-2.33
2022-12-18T03:49:19.865Z,-2.31
2022-12-18T03:51:56.532Z,-2.29
2022-12-18T03:54:30.537Z,-2.30
2022-12-18T03:57:09.618Z,-2.33
2022-12-18T03:59:42.404Z,-2.35
2022-12-18T04:02:17.631Z,-2.37
2022-12-18T04:04:52.411Z,-2.39
2022-12-18T04:07:24.507Z,-2.40
2022-12-18T04:09:59.838Z,-2.42
2022-12-18T04:12:33.229Z,-2.41
2022-12-18T04:15:08.341Z,-2.42
2022-12-18T04:18:00.748Z,-2.44
2022-12-18T04:20:37.584Z,-2.49
2022-12-18T04:23:13.758Z,-2.52
2022-12-18T04:25:45.702Z,-2.52
2022-12-18T04:28:17.284Z,-2.57
2022-12-18T04:30:56.788Z,-2.56
2022-12-18T04:33:28.541Z,-2.60
2022-12-18T04:36:00.316Z,-2.56
2022-12-18T04:38:32.095Z,-2.57
2022-12-18T04:41:03.800Z,-2.59
2022-12-18T04:43:39.175Z,-2.58
2022-12-18T04:46:14.713Z,-2.58
2022-12-18T04:48:49.870Z,-2.57
2022-12-18T04:51:26.371Z,-2.57
2022-12-18T04:53:58.733Z,-2.58
2022-12-18T04:56:33.347Z,-2.58
2022-12-18T04:59:25.846Z,-2.60
2022-12-18T05:02:24.510Z,-2.59
2022-12-18T05:04:56.456Z,-2.57
2022-12-18T05:07:28.586Z,-2.54
2022-12-18T05:10:00.438Z,-2.51
2022-12-18T05:13:18.498Z,-2.51
2022-12-18T05:15:55.337Z,-2.51
2022-12-18T05:18:38.696Z,-2.48
2022-12-18T05:21:11.164Z,-2.49
2022-12-18T05:23:43.625Z,-2.54
2022-12-18T05:26:24.157Z,-2.56
2022-12-18T05:28:55.794Z,-2.58
2022-12-18T05:31:35.980Z,-2.60
2022-12-18T05:34:10.877Z,-2.60
2022-12-18T05:36:43.396Z,-2.58
2022-12-18T05:39:16.571Z,-2.58
2022-12-18T05:42:00.892Z,-2.59
2022-12-18T05:44:32.598Z,-2.58
2022-12-18T05:47:05.359Z,-2.58
2022-12-18T05:49:36.977Z,-2.58
2022-12-18T05:52:29.533Z,-2.61
2022-12-18T05:55:03.497Z,-2.59
2022-12-18T05:57:35.386Z,-2.56
2022-12-18T06:00:25.683Z,-2.54
2022-12-18T06:02:57.447Z,-2.54
2022-12-18T06:05:38.705Z,-2.53
2022-12-18T06:08:11.851Z,-2.53
2022-12-18T06:10:44.645Z,-2.60
2022-12-18T06:13:16.465Z,-2.55
2022-12-18T06:15:53.280Z,-2.55
2022-12-18T06:18:27.427Z,-2.55
2022-12-18T06:21:03.861Z,-2.56
2022-12-18T06:23:42.153Z,-2.56
2022-12-18T06:26:16.199Z,-2.58
2022-12-18T06:28:47.940Z,-2.60
2022-12-18T06:31:20.221Z,-2.62
2022-12-18T06:34:14.095Z,-2.61
2022-12-18T06:36:44.177Z,-2.60
2022-12-18T06:39:15.909Z,-2.60
2022-12-18T06:41:47.591Z,-2.59
2022-12-18T06:44:19.588Z,-2.60
2022-12-18T06:46:51.413Z,-2.58
2022-12-18T06:49:43.413Z,-2.59
2022-12-18T06:52:16.034Z,-2.61
2022-12-18T06:54:50.274Z,-2.61
2022-12-18T06:57:22.611Z,-2.62
2022-12-18T07:00:01.793Z,-2.64
2022-12-18T07:02:34.632Z,-2.69
2022-12-18T07:05:11.208Z,-2.75
2022-12-18T07:07:44.126Z,-2.76
2022-12-18T07:10:18.810Z,-2.76
2022-12-18T07:12:50.850Z,-2.75
2022-12-18T07:15:43.613Z,-2.74
2022-12-18T07:18:38.689Z,-2.74
2022-12-18T07:21:08.120Z,-2.74
2022-12-18T07:23:40.289Z,-2.74
2022-12-18T07:26:33.157Z,-2.76
2022-12-18T07:29:06.561Z,-2.79
2022-12-18T07:31:36.676Z,-2.83
2022-12-18T07:34:11.715Z,-2.82
2022-12-18T07:36:48.185Z,-2.80
2022-12-18T07:39:22.123Z,-2.77
2022-12-18T07:42:07.621Z,-2.76
2022-12-18T07:44:39.811Z,-2.72
2022-12-18T07:47:12.303Z,-2.69
2022-12-18T07:49:44.313Z,-2.69
2022-12-18T07:52:17.735Z,-2.70
2022-12-18T07:54:51.415Z,-2.71
2022-12-18T07:57:48.934Z,-2.61
2022-12-18T08:00:18.161Z,-2.64
2022-12-18T08:02:50.217Z,-2.66
2022-12-18T08:05:23.361Z,-2.63
2022-12-18T08:07:57.039Z,-2.57
2022-12-18T08:10:28.866Z,-2.51
2022-12-18T08:13:04.894Z,-2.45
2022-12-18T08:15:37.100Z,-2.37
2022-12-18T08:18:13.887Z,-2.30
2022-12-18T08:20:49.255Z,-2.28
2022-12-18T08:23:20.877Z,-2.27
2022-12-18T08:25:52.758Z,-2.24
2022-12-18T08:28:24.403Z,-2.13
2022-12-18T08:30:56.529Z,-1.98
2022-12-18T08:33:29.322Z,-1.90
2022-12-18T08:36:02.840Z,-1.85
2022-12-18T08:38:33.723Z,-1.81
2022-12-18T08:41:09.864Z,-1.79
2022-12-18T08:44:00.780Z,-1.78
2022-12-18T08:46:39.356Z,-1.78
2022-12-18T08:49:12.130Z,-1.76
2022-12-18T08:51:43.861Z,-1.74
2022-12-18T08:54:16.537Z,-1.68
2022-12-18T08:56:48.299Z,-1.62
2022-12-18T08:59:20.829Z,-1.55
2022-12-18T09:01:52.714Z,-1.53
2022-12-18T09:04:24.773Z,-1.50
2022-12-18T09:06:58.784Z,-1.53
2022-12-18T09:09:30.501Z,-1.59
2022-12-18T09:12:02.334Z,-1.64
2022-12-18T09:14:33.998Z,-1.63
2022-12-18T09:17:06.004Z,-1.62
2022-12-18T09:19:37.670Z,-1.60
2022-12-18T09:22:10.598Z,-1.54
2022-12-18T09:24:42.392Z,-1.47
2022-12-18T09:27:14.003Z,-1.44
2022-12-18T09:29:46.057Z,-1.39
2022-12-18T09:32:22.330Z,-1.33
2022-12-18T09:34:55.000Z,-1.27
2022-12-18T09:37:27.713Z,-1.22
2022-12-18T09:39:59.482Z,-1.20
2022-12-18T09:42:31.611Z,-1.19
2022-12-18T09:45:05.456Z,-1.14
2022-12-18T09:47:43.351Z,-1.06
2022-12-18T09:50:41.541Z,-0.97
2022-12-18T09:53:18.185Z,-0.93
2022-12-18T09:55:53.375Z,-0.92
2022-12-18T09:58:30.911Z,-0.89
2022-12-18T10:01:14.086Z,-0.82
2022-12-18T10:03:45.890Z,-0.73
2022-12-18T10:06:31.844Z,-0.57
2022-12-18T10:09:08.425Z,-0.46
2022-12-18T10:11:51.027Z,-0.32
2022-12-18T10:14:32.639Z,-0.15
2022-12-18T10:17:12.587Z,0.00
2022-12-18T10:19:52.683Z,0.06
2022-12-18T10:22:37.039Z,0.09
2022-12-18T10:25:21.288Z,0.11
2022-12-18T10:27:58.716Z,0.08
2022-12-18T10:30:30.366Z,0.01
2022-12-18T10:33:07.736Z,0.07
2022-12-18T10:35:43.104Z,0.20
2022-12-18T10:38:29.007Z,0.29
2022-12-18T10:41:02.601Z,0.46
2022-12-18T10:43:33.702Z,0.56
2022-12-18T10:46:18.679Z,0.62
2022-12-18T10:48:57.975Z,0.61
2022-12-18T10:51:35.548Z,0.62
2022-12-18T10:54:15.581Z,0.64
2022-12-18T10:56:47.893Z,0.56
2022-12-18T10:59:20.388Z,0.52
2022-12-18T11:01:55.896Z,0.53
2022-12-18T11:04:30.129Z,0.54
2022-12-18T11:07:05.060Z,0.57
2022-12-18T11:09:38.611Z,0.51
2022-12-18T11:12:19.823Z,0.32
2022-12-18T11:14:53.524Z,0.16
2022-12-18T11:17:30.441Z,-0.02
2022-12-18T11:20:04.508Z,-0.10
2022-12-18T11:22:40.833Z,-0.15
2022-12-18T11:25:36.680Z,-0.18
2022-12-18T11:28:27.499Z,-0.33
2022-12-18T11:31:14.542Z,-0.44
2022-12-18T11:34:19.645Z,-0.51
2022-12-18T11:36:47.939Z,-0.68
2022-12-18T11:39:26.780Z,-0.81
2022-12-18T11:42:15.517Z,-0.85
2022-12-18T11:44:50.710Z,-0.98
2022-12-18T11:47:30.675Z,-0.96
2022-12-18T11:50:05.736Z,-0.98
2022-12-18T11:52:40.785Z,-1.05
2022-12-18T11:55:16.448Z,-1.04
2022-12-18T11:57:58.123Z,-0.97
2022-12-18T12:00:31.230Z,-0.75
2022-12-18T12:03:29.558Z,-0.60
2022-12-18T12:06:15.551Z,-0.65
2022-12-18T12:08:59.367Z,-0.82
2022-12-18T12:11:43.401Z,-0.99
2022-12-18T12:14:44.602Z,-1.03
2022-12-18T12:17:26.177Z,-1.00
2022-12-18T12:20:06.284Z,-0.96
2022-12-18T12:22:49.482Z,-0.91
2022-12-18T12:25:40.497Z,-0.89
2022-12-18T12:28:26.675Z,-0.92
2022-12-18T12:31:08.263Z,-0.96
2022-12-18T12:33:54.104Z,-0.99
2022-12-18T12:36:35.681Z,-0.91
2022-12-18T12:39:13.794Z,-0.84
2022-12-18T12:42:06.641Z,-0.82
2022-12-18T12:44:44.674Z,-0.88
2022-12-18T12:47:20.286Z,-0.89
2022-12-18T12:49:56.099Z,-0.87
2022-12-18T12:52:35.391Z,-0.83
2022-12-18T12:55:15.027Z,-0.82
2022-12-18T12:58:09.766Z,-0.75
2022-12-18T13:00:49.701Z,-0.74
2022-12-18T13:03:31.589Z,-0.75
2022-12-18T13:06:07.196Z,-0.79
2022-12-18T13:08:58.611Z,-0.82
2022-12-18T13:11:59.773Z,-0.86
2022-12-18T13:14:34.881Z,-0.93
2022-12-18T13:17:31.950Z,-1.01
2022-12-18T13:20:14.493Z,-1.07
2022-12-18T13:22:51.241Z,-1.13
2022-12-18T13:25:40.261Z,-1.18
2022-12-18T13:28:15.035Z,-1.23
2022-12-18T13:30:55.383Z,-1.28
2022-12-18T13:34:16.467Z,-1.34
2022-12-18T13:36:38.121Z,-1.43
2022-12-18T13:39:34.299Z,-1.48
2022-12-18T13:43:00.244Z,-1.60
2022-12-18T13:46:03.617Z,-1.67
2022-12-18T13:48:38.958Z,-1.75
2022-12-18T13:51:13.157Z,-1.80
2022-12-18T13:53:50.778Z,-1.86
2022-12-18T13:56:29.573Z,-1.91
2022-12-18T13:59:22.894Z,-1.97
2022-12-18T14:02:04.214Z,-2.01
2022-12-18T14:04:38.131Z,-2.04
2022-12-18T14:07:10.061Z,-2.06
2022-12-18T14:09:47.075Z,-2.11
2022-12-18T14:12:41.095Z,-2.11
2022-12-18T14:15:30.057Z,-2.09
2022-12-18T14:18:15.398Z,-2.07
2022-12-18T14:20:54.632Z,-2.08
2022-12-18T14:23:34.799Z,-2.12
2022-12-18T14:26:29.995Z,-2.17
2022-12-18T14:29:20.504Z,-2.21
2022-12-18T14:32:17.461Z,-2.28
2022-12-18T14:34:52.540Z,-2.41
2022-12-18T14:37:26.702Z,-2.50
2022-12-18T14:40:10.442Z,-2.60
2022-12-18T14:42:44.219Z,-2.71
2022-12-18T14:45:44.140Z,-2.83
2022-12-18T14:48:23.101Z,-2.97
2022-12-18T14:51:04.431Z,-3.08
2022-12-18T14:53:46.293Z,-3.18
2022-12-18T14:56:24.911Z,-3.30
2022-12-18T14:58:58.912Z,-3.43
2022-12-18T15:01:35.249Z,-3.55
2022-12-18T15:04:28.387Z,-3.72
2022-12-18T15:07:14.665Z,-3.90
2022-12-18T15:10:13.358Z,-4.06
2022-12-18T15:12:47.640Z,-4.16
2022-12-18T15:15:51.762Z,-4.24
2022-12-18T15:18:24.032Z,-4.34
2022-12-18T15:20:57.932Z,-4.43
2022-12-18T15:23:35.888Z,-4.50
2022-12-18T15:26:11.433Z,-4.58
2022-12-18T15:28:47.889Z,-4.66
2022-12-18T15:31:33.074Z,-4.74
2022-12-18T15:34:21.378Z,-4.82
2022-12-18T15:36:53.932Z,-4.89
2022-12-18T15:39:25.752Z,-4.96
2022-12-18T15:42:15.256Z,-5.03
2022-12-18T15:44:47.128Z,-5.18
2022-12-18T15:47:18.799Z,-5.18
2022-12-18T15:49:50.471Z,-5.25
2022-12-18T15:52:28.171Z,-5.33
2022-12-18T15:55:17.420Z,-5.39
2022-12-18T15:57:49.019Z,-5.43
2022-12-18T16:00:21.768Z,-5.43
2022-12-18T16:02:53.634Z,-5.44
2022-12-18T16:05:27.923Z,-5.43
2022-12-18T16:07:59.695Z,-5.44
2022-12-18T16:10:31.607Z,-5.44
2022-12-18T16:13:03.389Z,-5.45
2022-12-18T16:15:35.139Z,-5.43
2022-12-18T16:18:07.171Z,-5.41
2022-12-18T16:20:40.318Z,-5.44
2022-12-18T16:23:12.110Z,-5.40
2022-12-18T16:25:45.276Z,-5.44
2022-12-18T16:28:16.913Z,-5.48
2022-12-18T16:30:49.087Z,-5.51
2022-12-18T16:33:20.804Z,-5.54
2022-12-18T16:35:56.299Z,-5.57
2022-12-18T16:38:28.063Z,-5.59
2022-12-18T16:41:17.625Z,-5.61
2022-12-18T16:43:54.664Z,-5.66
2022-12-18T16:46:27.368Z,-5.73
2022-12-18T16:49:00.571Z,-5.76
2022-12-18T16:51:32.654Z,-5.80
2022-12-18T16:54:09.657Z,-5.83
2022-12-18T16:56:44.129Z,-5.84
2022-12-18T16:59:15.764Z,-5.87
2022-12-18T17:01:47.782Z,-5.90
2022-12-18T17:04:19.662Z,-5.90
2022-12-18T17:06:52.148Z,-5.92
2022-12-18T17:09:26.372Z,-5.97
2022-12-18T17:11:58.026Z,-6.01
2022-12-18T17:14:29.765Z,-6.15
2022-12-18T17:19:54.908Z,-6.22
2022-12-18T17:22:26.834Z,-6.25
2022-12-18T17:24:58.436Z,-6.29
2022-12-18T17:27:30.081Z,-6.33
2022-12-18T17:30:01.825Z,-6.33
2022-12-18T17:32:33.423Z,-6.36
2022-12-18T17:35:08.872Z,-6.41
2022-12-18T17:37:40.764Z,-6.43
2022-12-18T17:40:13.774Z,-6.46
2022-12-18T17:42:45.457Z,-6.49
2022-12-18T17:45:17.229Z,-6.49
2022-12-18T17:47:48.871Z,-6.47
2022-12-18T17:50:20.844Z,-6.48
2022-12-18T17:52:56.443Z,-6.46
2022-12-18T17:55:28.867Z,-6.47
2022-12-18T17:58:00.842Z,-6.53
2022-12-18T18:00:32.624Z,-6.57
2022-12-18T18:03:04.567Z,-6.59
2022-12-18T18:05:36.696Z,-6.62
2022-12-18T18:08:09.391Z,-6.60
2022-12-18T18:10:43.439Z,-6.59
2022-12-18T18:13:46.389Z,-6.63
2022-12-18T18:16:19.405Z,-6.63
2022-12-18T18:18:52.208Z,-6.67
2022-12-18T18:21:23.978Z,-6.71
2022-12-18T18:23:55.559Z,-6.74
2022-12-18T18:26:29.738Z,-6.77
2022-12-18T18:29:03.989Z,-6.80
2022-12-18T18:31:41.017Z,-6.80
2022-12-18T18:34:18.154Z,-6.82
2022-12-18T18:36:49.840Z,-6.81
2022-12-18T18:39:22.144Z,-6.83
2022-12-18T18:41:53.853Z,-6.87
2022-12-18T18:44:26.457Z,-6.88
2022-12-18T18:46:59.584Z,-6.89
2022-12-18T18:49:32.263Z,-6.91
2022-12-18T18:52:03.987Z,-6.92
2022-12-18T18:54:35.949Z,-6.94
2022-12-18T18:57:29.983Z,-6.99
2022-12-18T18:59:59.961Z,-7.05
2022-12-18T19:02:31.706Z,-7.09
2022-12-18T19:05:03.937Z,-7.14
2022-12-18T19:07:35.627Z,-7.18
2022-12-18T19:10:09.267Z,-7.30
2022-12-18T19:12:58.886Z,-7.37
2022-12-18T19:15:30.689Z,-7.36
2022-12-18T19:18:02.404Z,-7.35
2022-12-18T19:20:35.183Z,-7.39
2022-12-18T19:23:06.862Z,-7.40
2022-12-18T19:25:41.798Z,-7.40
2022-12-18T19:28:21.401Z,-7.42
2022-12-18T19:30:59.223Z,-7.45
2022-12-18T19:33:43.026Z,-7.48
2022-12-18T19:36:22.594Z,-7.51
2022-12-18T19:38:55.637Z,-7.62
2022-12-18T19:41:31.137Z,-7.71
2022-12-18T19:44:07.629Z,-7.71
2022-12-18T19:46:41.864Z,-7.76
2022-12-18T19:49:18.224Z,-7.81
2022-12-18T19:51:50.334Z,-7.87
2022-12-18T19:54:22.132Z,-7.91
2022-12-18T19:56:53.748Z,-7.92
2022-12-18T19:59:25.377Z,-7.95
2022-12-18T20:01:57.251Z,-7.96
2022-12-18T20:04:29.173Z,-7.95
2022-12-18T20:07:00.862Z,-8.00
2022-12-18T20:09:33.104Z,-8.04
2022-12-18T20:12:05.870Z,-8.06
2022-12-18T20:14:37.787Z,-8.10
2022-12-18T20:17:09.607Z,-8.17
2022-12-18T20:19:41.980Z,-8.16
2022-12-18T20:22:14.071Z,-8.16
2022-12-18T20:24:46.363Z,-8.17
2022-12-18T20:27:23.760Z,-8.16
2022-12-18T20:29:55.888Z,-8.17
2022-12-18T20:32:35.406Z,-8.21
2022-12-18T20:35:10.368Z,-8.25
2022-12-18T20:37:43.795Z,-8.28
2022-12-18T20:40:42.144Z,-8.36
2022-12-18T20:43:17.302Z,-8.39
2022-12-18T20:45:49.251Z,-8.44
2022-12-18T20:48:26.365Z,-8.50
2022-12-18T20:51:03.847Z,-8.56
2022-12-18T20:53:36.836Z,-8.54
2022-12-18T20:56:12.727Z,-8.52
2022-12-18T20:58:46.012Z,-8.53
2022-12-18T21:01:21.137Z,-8.56
2022-12-18T21:03:54.071Z,-8.59
2022-12-18T21:06:25.957Z,-8.61
2022-12-18T21:08:57.615Z,-8.59
2022-12-18T21:11:49.891Z,-8.58
2022-12-18T21:14:24.050Z,-8.60
2022-12-18T21:17:02.010Z,-8.60
2022-12-18T21:19:34.027Z,-8.61
2022-12-18T21:22:06.140Z,-8.63
2022-12-18T21:24:37.976Z,-8.64
2022-12-18T21:27:09.897Z,-8.62
2022-12-18T21:29:46.993Z,-8.67
2022-12-18T21:32:18.849Z,-8.76
2022-12-18T21:34:52.252Z,-8.81
2022-12-18T21:37:23.997Z,-8.82
2022-12-18T21:39:55.654Z,-8.84
2022-12-18T21:42:44.148Z,-8.88
2022-12-18T21:45:15.739Z,-8.92
2022-12-18T21:47:47.520Z,-8.96
2022-12-18T21:50:19.589Z,-8.96
2022-12-18T21:52:51.452Z,-9.01
2022-12-18T21:55:23.155Z,-9.07
2022-12-18T21:57:56.409Z,-9.13
2022-12-18T22:00:28.118Z,-9.15
2022-12-18T22:03:17.547Z,-9.13
2022-12-18T22:05:53.317Z,-9.11
2022-12-18T22:08:39.845Z,-9.12
2022-12-18T22:11:15.492Z,-9.18
2022-12-18T22:13:49.066Z,-9.19
2022-12-18T22:16:23.147Z,-9.21
2022-12-18T22:18:55.904Z,-9.25
2022-12-18T22:21:30.346Z,-9.28
2022-12-18T22:24:03.454Z,-9.27
2022-12-18T22:26:39.435Z,-9.24
2022-12-18T22:29:35.275Z,-9.24
2022-12-18T22:32:10.370Z,-9.40
2022-12-18T22:34:43.740Z,-9.35
2022-12-18T22:37:17.592Z,-9.39
2022-12-18T22:39:49.210Z,-9.43
2022-12-18T22:42:21.610Z,-9.46
2022-12-18T22:44:53.192Z,-9.51
2022-12-18T22:47:29.358Z,-9.52
2022-12-18T22:50:03.079Z,-9.51
2022-12-18T22:52:34.897Z,-9.63
2022-12-18T22:55:07.871Z,-9.55
2022-12-18T22:57:41.168Z,-9.53
2022-12-18T23:00:23.940Z,-9.55
2022-12-18T23:03:00.641Z,-9.50
2022-12-18T23:05:34.273Z,-9.45
2022-12-18T23:08:06.306Z,-9.42
2022-12-18T23:10:40.741Z,-9.44
2022-12-18T23:13:12.409Z,-9.45
2022-12-18T23:15:45.281Z,-9.48
2022-12-18T23:18:17.788Z,-9.46
2022-12-18T23:20:50.541Z,-9.49
2022-12-18T23:23:23.365Z,-9.50
2022-12-18T23:26:03.106Z,-9.52
2022-12-18T23:28:36.722Z,-9.49
2022-12-18T23:31:12.750Z,-9.48
2022-12-18T23:33:48.185Z,-9.51
2022-12-18T23:36:23.108Z,-9.49
2022-12-18T23:38:57.370Z,-9.51
2022-12-18T23:41:32.383Z,-9.49
2022-12-18T23:44:04.008Z,-9.51
2022-12-18T23:46:37.549Z,-9.61
2022-12-18T23:49:09.387Z,-9.61
2022-12-18T23:51:43.831Z,-9.55
2022-12-18T23:54:15.734Z,-9.53
2022-12-18T23:56:47.398Z,-9.49
2022-12-18T23:59:23.953Z,-9.48
